createdAt,value
2018-01-23T00:00:12.356Z,42.70
2018-01-23T00:01:12.379Z,50.30
2018-01-23T00:02:12.392Z,56.30
2018-01-23T00:03:12.403Z,54.30
2018-01-23T00:04:12.417Z,54.90
2018-01-23T00:05:12.435Z,53.20
2018-01-23T00:06:12.451Z,56.30
2018-01-23T00:07:12.458Z,52.20
2018-01-23T00:08:12.478Z,48.90
2018-01-23T00:09:12.489Z,47.10
2018-01-23T00:10:12.501Z,48.50
2018-01-23T00:11:12.517Z,45.90
2018-01-23T00:12:12.536Z,50.10
2018-01-23T00:13:12.546Z,48.50
2018-01-23T00:14:12.560Z,52.90
2018-01-23T00:15:12.575Z,61.30
2018-01-23T00:16:12.589Z,60.50
2018-01-23T00:17:12.603Z,50.40
2018-01-23T00:18:12.616Z,50.10
2018-01-23T00:19:12.636Z,50.10
2018-01-23T00:20:12.650Z,51.60
2018-01-23T00:21:12.661Z,57.10
2018-01-23T00:22:12.677Z,57.40
2018-01-23T00:23:12.703Z,45.30
2018-01-23T00:24:12.703Z,57.80
2018-01-23T00:25:12.717Z,56.20
2018-01-23T00:26:12.733Z,59.10
2018-01-23T00:27:12.748Z,56.80
2018-01-23T00:28:12.761Z,45.50
2018-01-23T00:29:12.778Z,49.50
2018-01-23T00:30:12.793Z,59.30
2018-01-23T00:31:12.804Z,58.40
2018-01-23T00:32:12.817Z,44.00
2018-01-23T00:33:12.834Z,53.30
2018-01-23T00:34:12.848Z,50.60
2018-01-23T00:35:12.863Z,42.30
2018-01-23T00:36:12.877Z,49.50
2018-01-23T00:37:12.890Z,45.60
2018-01-23T00:38:12.906Z,50.10
2018-01-23T00:39:12.921Z,51.90
2018-01-23T00:40:13.026Z,53.90
2018-01-23T00:41:12.951Z,54.70
2018-01-23T00:42:12.963Z,58.70
2018-01-23T00:43:12.978Z,46.90
2018-01-23T00:44:12.992Z,47.70
2018-01-23T00:45:13.009Z,53.20
2018-01-23T00:46:13.024Z,51.80
2018-01-23T00:47:13.037Z,49.10
2018-01-23T00:48:13.050Z,49.30
2018-01-23T00:49:13.068Z,54.40
2018-01-23T00:50:13.080Z,48.70
2018-01-23T00:51:13.097Z,55.10
2018-01-23T00:52:13.112Z,52.10
2018-01-23T00:53:13.125Z,53.90
2018-01-23T00:54:13.138Z,55.80
2018-01-23T00:55:13.155Z,51.80
2018-01-23T00:56:13.169Z,56.90
2018-01-23T00:57:13.181Z,42.20
2018-01-23T00:58:13.197Z,52.80
2018-01-23T00:59:13.214Z,47.50
2018-01-23T01:00:13.226Z,58.70
2018-01-23T01:01:13.244Z,49.70
2018-01-23T01:02:13.253Z,57.00
2018-01-23T01:03:13.336Z,56.40
2018-01-23T01:04:13.282Z,59.90
2018-01-23T01:05:13.297Z,56.60
2018-01-23T01:06:13.313Z,54.60
2018-01-23T01:07:13.327Z,54.00
2018-01-23T01:08:13.339Z,66.20
2018-01-23T01:09:13.358Z,60.10
2018-01-23T01:10:13.372Z,58.70
2018-01-23T01:11:13.385Z,54.60
2018-01-23T01:12:13.399Z,50.70
2018-01-23T01:13:13.413Z,63.70
2018-01-23T01:14:13.428Z,62.40
2018-01-23T01:15:13.443Z,54.90
2018-01-23T01:16:13.455Z,52.10
2018-01-23T01:17:13.483Z,54.30
2018-01-23T01:18:13.491Z,48.20
2018-01-23T01:19:13.501Z,52.90
2018-01-23T01:20:13.519Z,55.30
2018-01-23T01:21:13.529Z,51.20
2018-01-23T01:22:13.546Z,62.20
2018-01-23T01:23:13.559Z,54.20
2018-01-23T01:24:13.572Z,57.10
2018-01-23T01:25:13.587Z,55.10
2018-01-23T01:26:13.606Z,62.60
2018-01-23T01:27:13.616Z,50.90
2018-01-23T01:28:13.629Z,55.40
2018-01-23T01:29:13.646Z,59.60
2018-01-23T01:30:13.660Z,65.00
2018-01-23T01:31:13.674Z,63.40
2018-01-23T01:32:13.687Z,66.70
2018-01-23T01:33:13.704Z,63.50
2018-01-23T01:34:13.719Z,65.70
2018-01-23T01:35:13.733Z,62.30
2018-01-23T01:36:13.750Z,68.00
2018-01-23T01:37:13.762Z,57.90
2018-01-23T01:38:13.775Z,52.50
2018-01-23T01:39:13.789Z,57.40
2018-01-23T01:40:13.810Z,58.00
2018-01-23T01:41:13.823Z,53.40
2018-01-23T01:42:13.838Z,57.30
2018-01-23T01:43:13.851Z,57.20
2018-01-23T01:44:13.866Z,58.20
2018-01-23T01:45:13.879Z,56.50
2018-01-23T01:46:13.894Z,56.30
2018-01-23T01:47:13.914Z,55.70
2018-01-23T01:48:13.926Z,58.30
2018-01-23T01:49:13.940Z,54.10
2018-01-23T01:50:13.958Z,57.50
2018-01-23T01:51:14.004Z,53.00
2018-01-23T01:52:13.990Z,55.70
2018-01-23T01:53:14.002Z,58.50
2018-01-23T01:54:14.009Z,49.50
2018-01-23T01:55:14.025Z,65.10
2018-01-23T01:56:14.039Z,62.50
2018-01-23T01:57:14.054Z,55.00
2018-01-23T01:58:14.066Z,53.40
2018-01-23T01:59:14.084Z,64.30
2018-01-23T02:00:14.105Z,56.60
2018-01-23T02:01:14.110Z,52.90
2018-01-23T02:02:14.130Z,54.70
2018-01-23T02:03:14.141Z,62.80
2018-01-23T02:04:14.154Z,65.50
2018-01-23T02:05:14.170Z,66.40
2018-01-23T02:06:14.187Z,58.70
2018-01-23T02:07:14.201Z,62.60
2018-01-23T02:08:14.214Z,62.90
2018-01-23T02:09:14.230Z,61.80
2018-01-23T02:10:14.244Z,57.80
2018-01-23T02:11:14.265Z,60.10
2018-01-23T02:12:14.276Z,64.70
2018-01-23T02:13:14.288Z,56.00
2018-01-23T02:14:14.303Z,57.60
2018-01-23T02:15:14.317Z,66.40
2018-01-23T02:16:14.336Z,61.60
2018-01-23T02:17:14.348Z,57.90
2018-01-23T02:18:14.434Z,49.30
2018-01-23T02:19:14.380Z,58.80
2018-01-23T02:20:14.394Z,58.00
2018-01-23T02:21:14.406Z,57.00
2018-01-23T02:22:14.424Z,50.40
2018-01-23T02:23:14.494Z,53.20
2018-01-23T02:24:14.447Z,57.20
2018-01-23T02:25:14.464Z,59.40
2018-01-23T02:26:14.481Z,52.90
2018-01-23T02:27:14.498Z,54.60
2018-01-23T02:28:14.531Z,52.80
2018-01-23T02:29:14.520Z,52.10
2018-01-23T02:30:14.542Z,59.10
2018-01-23T02:31:14.555Z,49.20
2018-01-23T02:32:14.570Z,58.30
2018-01-23T02:33:14.579Z,63.00
2018-01-23T02:34:14.596Z,57.40
2018-01-23T02:35:14.614Z,62.50
2018-01-23T02:36:14.628Z,61.00
2018-01-23T02:37:14.640Z,60.20
2018-01-23T02:38:14.657Z,61.40
2018-01-23T02:39:14.669Z,63.10
2018-01-23T02:40:14.688Z,61.80
2018-01-23T02:41:14.703Z,56.50
2018-01-23T02:42:14.712Z,53.90
2018-01-23T02:43:14.729Z,59.00
2018-01-23T02:44:14.745Z,64.50
2018-01-23T02:45:14.758Z,61.70
2018-01-23T02:46:14.772Z,52.30
2018-01-23T02:47:14.789Z,62.10
2018-01-23T02:48:14.799Z,56.50
2018-01-23T02:49:14.821Z,58.70
2018-01-23T02:50:14.834Z,67.90
2018-01-23T02:51:14.847Z,62.50
2018-01-23T02:52:14.860Z,61.50
2018-01-23T02:53:14.874Z,59.40
2018-01-23T02:54:14.888Z,66.00
2018-01-23T02:55:14.905Z,63.40
2018-01-23T02:56:14.917Z,70.80
2018-01-23T02:57:14.931Z,64.10
2018-01-23T02:58:14.947Z,60.70
2018-01-23T02:59:14.960Z,67.90
2018-01-23T03:00:14.976Z,56.20
2018-01-23T03:01:15.000Z,60.40
2018-01-23T03:02:15.006Z,58.70
2018-01-23T03:03:15.023Z,55.70
2018-01-23T03:04:15.036Z,59.90
2018-01-23T03:05:15.049Z,66.00
2018-01-23T03:06:15.066Z,58.10
2018-01-23T03:07:15.079Z,62.10
2018-01-23T03:08:15.095Z,53.90
2018-01-23T03:09:15.109Z,47.90
2018-01-23T03:10:15.121Z,60.40
2018-01-23T03:11:15.135Z,56.10
2018-01-23T03:12:15.152Z,55.10
2018-01-23T03:13:15.166Z,57.70
2018-01-23T03:14:15.180Z,59.70
2018-01-23T03:15:15.201Z,51.80
2018-01-23T03:16:15.214Z,60.00
2018-01-23T03:17:15.225Z,60.70
2018-01-23T03:18:15.244Z,60.10
2018-01-23T03:19:15.255Z,54.80
2018-01-23T03:20:15.267Z,62.50
2018-01-23T03:21:15.280Z,61.50
2018-01-23T03:22:15.296Z,60.60
2018-01-23T03:23:15.314Z,64.50
2018-01-23T03:24:15.326Z,60.30
2018-01-23T03:25:15.339Z,61.00
2018-01-23T03:26:15.353Z,59.70
2018-01-23T03:27:15.368Z,65.30
2018-01-23T03:28:15.382Z,73.20
2018-01-23T03:29:15.396Z,53.90
2018-01-23T03:30:15.415Z,64.30
2018-01-23T03:31:15.426Z,56.60
2018-01-23T03:32:15.439Z,55.90
2018-01-23T03:33:15.569Z,60.60
2018-01-23T03:34:15.468Z,48.40
2018-01-23T03:35:15.483Z,65.00
2018-01-23T03:36:15.505Z,66.20
2018-01-23T03:37:15.512Z,60.20
2018-01-23T03:38:15.526Z,62.20
2018-01-23T03:39:15.541Z,63.90
2018-01-23T03:40:15.556Z,70.50
2018-01-23T03:41:15.570Z,65.60
2018-01-23T03:42:15.591Z,58.30
2018-01-23T03:43:15.599Z,61.00
2018-01-23T03:44:15.613Z,60.30
2018-01-23T03:45:15.626Z,61.10
2018-01-23T03:46:15.654Z,65.20
2018-01-23T03:47:15.656Z,56.00
2018-01-23T03:48:15.671Z,59.10
2018-01-23T03:49:15.685Z,62.40
2018-01-23T03:50:15.701Z,62.60
2018-01-23T03:51:15.715Z,72.10
2018-01-23T03:52:15.727Z,64.70
2018-01-23T03:53:15.741Z,58.70
2018-01-23T03:54:15.758Z,65.40
2018-01-23T03:55:15.773Z,62.90
2018-01-23T03:56:15.786Z,58.60
2018-01-23T03:57:15.799Z,66.40
2018-01-23T03:58:15.815Z,65.40
2018-01-23T03:59:15.832Z,60.10
2018-01-23T04:00:15.846Z,56.50
2018-01-23T04:01:15.862Z,63.30
2018-01-23T04:02:15.872Z,55.00
2018-01-23T04:03:15.889Z,53.20
2018-01-23T04:04:15.899Z,64.50
2018-01-23T04:05:15.912Z,62.80
2018-01-23T04:06:15.930Z,58.20
2018-01-23T04:07:15.946Z,56.30
2018-01-23T04:08:15.957Z,58.70
2018-01-23T04:09:15.974Z,64.80
2018-01-23T04:10:15.984Z,60.10
2018-01-23T04:11:16.000Z,58.70
2018-01-23T04:12:16.014Z,55.10
2018-01-23T04:13:16.029Z,59.70
2018-01-23T04:14:16.044Z,65.80
2018-01-23T04:15:16.060Z,69.60
2018-01-23T04:16:16.071Z,63.70
2018-01-23T04:17:16.088Z,54.00
2018-01-23T04:18:16.100Z,61.50
2018-01-23T04:19:16.160Z,55.50
2018-01-23T04:20:16.127Z,53.20
2018-01-23T04:21:16.144Z,68.10
2018-01-23T04:22:16.156Z,55.80
2018-01-23T04:23:16.172Z,43.90
2018-01-23T04:24:16.195Z,53.80
2018-01-23T04:25:16.197Z,50.60
2018-01-23T04:26:16.213Z,58.70
2018-01-23T04:27:16.230Z,57.20
2018-01-23T04:28:16.239Z,58.90
2018-01-23T04:29:16.254Z,62.10
2018-01-23T04:30:16.270Z,50.10
2018-01-23T04:31:16.285Z,61.60
2018-01-23T04:32:16.298Z,56.40
2018-01-23T04:33:16.314Z,57.70
2018-01-23T04:34:16.328Z,51.30
2018-01-23T04:35:16.342Z,55.00
2018-01-23T04:36:16.356Z,55.30
2018-01-23T04:37:16.371Z,57.90
2018-01-23T04:38:16.391Z,54.20
2018-01-23T04:39:16.397Z,60.80
2018-01-23T04:40:16.411Z,52.30
2018-01-23T04:41:16.425Z,53.20
2018-01-23T04:42:16.442Z,60.20
2018-01-23T04:43:16.454Z,51.90
2018-01-23T04:44:16.471Z,55.70
2018-01-23T04:45:16.485Z,55.40
2018-01-23T04:46:16.501Z,61.90
2018-01-23T04:47:16.512Z,58.80
2018-01-23T04:48:16.523Z,60.20
2018-01-23T04:49:16.540Z,69.60
2018-01-23T04:50:16.560Z,66.70
2018-01-23T04:51:16.568Z,58.80
2018-01-23T04:52:16.582Z,69.00
2018-01-23T04:53:16.596Z,71.80
2018-01-23T04:54:16.614Z,69.20
2018-01-23T04:55:16.626Z,61.60
2018-01-23T04:56:16.639Z,67.30
2018-01-23T04:57:16.660Z,59.70
2018-01-23T04:58:16.666Z,64.40
2018-01-23T04:59:16.682Z,60.00
2018-01-23T05:00:16.698Z,65.20
2018-01-23T05:01:16.712Z,63.40
2018-01-23T05:02:16.730Z,59.60
2018-01-23T05:03:16.743Z,66.60
2018-01-23T05:04:16.752Z,59.10
2018-01-23T05:05:16.770Z,53.80
2018-01-23T05:06:16.806Z,58.50
2018-01-23T05:07:16.797Z,57.00
2018-01-23T05:08:16.810Z,59.40
2018-01-23T05:09:16.822Z,53.30
2018-01-23T05:10:16.839Z,56.70
2018-01-23T05:11:16.850Z,52.50
2018-01-23T05:12:16.869Z,58.40
2018-01-23T05:13:16.880Z,55.50
2018-01-23T05:14:16.895Z,54.70
2018-01-23T05:15:16.911Z,56.20
2018-01-23T05:16:16.924Z,54.30
2018-01-23T05:17:16.935Z,55.30
2018-01-23T05:18:16.952Z,61.10
2018-01-23T05:19:16.965Z,61.40
2018-01-23T05:20:16.979Z,57.00
2018-01-23T05:21:17.001Z,62.50
2018-01-23T05:22:17.008Z,58.10
2018-01-23T05:23:17.021Z,60.40
2018-01-23T05:24:17.035Z,58.60
2018-01-23T05:25:17.050Z,61.60
2018-01-23T05:26:17.065Z,54.20
2018-01-23T05:27:17.081Z,59.90
2018-01-23T05:28:17.095Z,55.20
2018-01-23T05:29:17.109Z,54.90
2018-01-23T05:30:17.121Z,63.20
2018-01-23T05:31:17.137Z,60.00
2018-01-23T05:32:17.153Z,58.30
2018-01-23T05:33:17.167Z,64.40
2018-01-23T05:34:17.185Z,62.80
2018-01-23T05:35:17.196Z,58.50
2018-01-23T05:36:17.210Z,54.50
2018-01-23T05:37:17.237Z,59.90
2018-01-23T05:38:17.242Z,60.30
2018-01-23T05:39:17.255Z,55.60
2018-01-23T05:40:17.269Z,63.00
2018-01-23T05:41:17.284Z,65.90
2018-01-23T05:42:17.296Z,71.30
2018-01-23T05:43:17.312Z,69.40
2018-01-23T05:44:17.327Z,58.00
2018-01-23T05:45:17.342Z,67.20
2018-01-23T05:46:17.355Z,65.80
2018-01-23T05:47:17.374Z,75.00
2018-01-23T05:48:17.386Z,71.80
2018-01-23T05:49:17.400Z,66.20
2018-01-23T05:50:17.414Z,64.60
2018-01-23T05:51:17.427Z,74.60
2018-01-23T05:52:17.442Z,65.70
2018-01-23T05:53:17.456Z,69.10
2018-01-23T05:54:17.474Z,64.70
2018-01-23T05:55:17.486Z,57.90
2018-01-23T05:56:17.502Z,60.00
2018-01-23T05:57:17.513Z,65.10
2018-01-23T05:58:17.531Z,62.60
2018-01-23T05:59:17.545Z,57.50
2018-01-23T06:00:17.557Z,62.50
2018-01-23T06:01:17.574Z,59.30
2018-01-23T06:02:17.590Z,63.00
2018-01-23T06:03:17.607Z,62.70
2018-01-23T06:04:17.618Z,66.00
2018-01-23T06:05:17.631Z,64.60
2018-01-23T06:06:17.649Z,66.60
2018-01-23T06:07:17.664Z,62.20
2018-01-23T06:08:17.681Z,77.00
2018-01-23T06:09:17.694Z,70.30
2018-01-23T06:10:17.707Z,70.80
2018-01-23T06:11:17.724Z,73.70
2018-01-23T06:12:17.735Z,65.90
2018-01-23T06:13:17.752Z,69.90
2018-01-23T06:14:17.767Z,75.60
2018-01-23T06:15:17.779Z,67.20
2018-01-23T06:16:17.793Z,64.90
2018-01-23T06:17:17.810Z,71.60
2018-01-23T06:18:17.825Z,64.80
2018-01-23T06:19:17.837Z,68.50
2018-01-23T06:20:17.850Z,70.70
2018-01-23T06:21:17.866Z,62.50
2018-01-23T06:22:17.883Z,64.80
2018-01-23T06:23:17.898Z,72.40
2018-01-23T06:24:17.914Z,63.50
2018-01-23T06:25:17.928Z,59.10
2018-01-23T06:26:17.945Z,62.10
2018-01-23T06:27:17.954Z,59.50
2018-01-23T06:28:17.967Z,60.70
2018-01-23T06:29:17.988Z,65.00
2018-01-23T06:30:17.998Z,66.30
2018-01-23T06:31:18.013Z,60.50
2018-01-23T06:32:18.028Z,66.40
2018-01-23T06:33:18.044Z,61.50
2018-01-23T06:34:18.060Z,65.20
2018-01-23T06:35:18.074Z,67.70
2018-01-23T06:36:18.089Z,59.50
2018-01-23T06:37:18.109Z,60.70
2018-01-23T06:38:18.117Z,61.70
2018-01-23T06:39:18.137Z,59.80
2018-01-23T06:40:18.147Z,61.80
2018-01-23T06:41:18.162Z,68.10
2018-01-23T06:42:18.175Z,66.00
2018-01-23T06:43:18.198Z,67.30
2018-01-23T06:44:18.206Z,63.50
2018-01-23T06:45:18.221Z,65.60
2018-01-23T06:46:18.235Z,64.20
2018-01-23T06:47:18.251Z,65.20
2018-01-23T06:48:18.263Z,66.20
2018-01-23T06:49:18.281Z,68.70
2018-01-23T06:50:18.294Z,79.30
2018-01-23T06:51:18.310Z,70.20
2018-01-23T06:52:18.321Z,65.60
2018-01-23T06:53:18.341Z,66.00
2018-01-23T06:54:18.350Z,69.20
2018-01-23T06:55:18.367Z,61.40
2018-01-23T06:56:18.380Z,71.90
2018-01-23T06:57:18.396Z,74.60
2018-01-23T06:58:18.413Z,75.70
2018-01-23T06:59:18.424Z,72.50
2018-01-23T07:00:18.440Z,73.20
2018-01-23T07:01:18.456Z,77.50
2018-01-23T07:02:18.471Z,76.50
2018-01-23T07:03:18.485Z,71.50
2018-01-23T07:04:18.499Z,63.90
2018-01-23T07:05:18.516Z,72.00
2018-01-23T07:06:18.529Z,76.40
2018-01-23T07:07:18.542Z,70.80
2018-01-23T07:08:18.592Z,64.40
2018-01-23T07:09:18.572Z,69.10
2018-01-23T07:10:18.588Z,65.40
2018-01-23T07:11:18.603Z,66.30
2018-01-23T07:12:18.616Z,79.20
2018-01-23T07:13:18.630Z,70.90
2018-01-23T07:14:18.649Z,72.30
2018-01-23T07:15:18.663Z,69.50
2018-01-23T07:16:18.676Z,70.30
2018-01-23T07:17:18.694Z,67.00
2018-01-23T07:18:18.705Z,71.00
2018-01-23T07:19:18.721Z,68.20
2018-01-23T07:20:18.734Z,67.60
2018-01-23T07:21:18.750Z,68.90
2018-01-23T07:22:18.765Z,78.00
2018-01-23T07:23:18.780Z,73.50
2018-01-23T07:24:18.794Z,69.90
2018-01-23T07:25:18.808Z,75.60
2018-01-23T07:26:18.826Z,70.00
2018-01-23T07:27:18.838Z,77.20
2018-01-23T07:28:18.851Z,73.70
2018-01-23T07:29:18.865Z,67.10
2018-01-23T07:30:18.898Z,79.30
2018-01-23T07:31:18.896Z,82.60
2018-01-23T07:32:18.914Z,81.80
2018-01-23T07:33:18.925Z,82.90
2018-01-23T07:34:18.944Z,78.50
2018-01-23T07:35:18.956Z,78.60
2018-01-23T07:36:18.973Z,88.70
2018-01-23T07:37:18.986Z,75.60
2018-01-23T07:38:19.004Z,80.50
2018-01-23T07:39:19.017Z,72.50
2018-01-23T07:40:19.030Z,83.50
2018-01-23T07:41:19.045Z,75.80
2018-01-23T07:42:19.057Z,74.20
2018-01-23T07:43:19.075Z,79.50
2018-01-23T07:44:19.088Z,83.70
2018-01-23T07:45:19.105Z,78.70
2018-01-23T07:46:19.117Z,77.20
2018-01-23T07:47:19.133Z,76.60
2018-01-23T07:48:19.148Z,72.60
2018-01-23T07:49:19.163Z,70.90
2018-01-23T07:50:19.185Z,74.30
2018-01-23T07:51:19.192Z,66.60
2018-01-23T07:52:19.205Z,67.30
2018-01-23T07:53:19.267Z,65.00
2018-01-23T07:54:19.236Z,64.90
2018-01-23T07:55:19.252Z,64.40
2018-01-23T07:56:19.266Z,73.80
2018-01-23T07:57:19.280Z,77.30
2018-01-23T07:58:19.296Z,82.10
2018-01-23T07:59:19.310Z,76.00
2018-01-23T08:00:19.327Z,72.20
2018-01-23T08:01:19.340Z,76.10
2018-01-23T08:02:19.357Z,68.30
2018-01-23T08:03:19.369Z,84.50
2018-01-23T08:04:19.386Z,81.50
2018-01-23T08:05:19.399Z,76.90
2018-01-23T08:06:19.414Z,77.10
2018-01-23T08:07:19.440Z,74.60
2018-01-23T08:08:19.444Z,67.30
2018-01-23T08:09:19.461Z,71.40
2018-01-23T08:10:19.475Z,72.70
2018-01-23T08:11:19.491Z,71.10
2018-01-23T08:12:19.504Z,69.60
2018-01-23T08:13:19.519Z,69.30
2018-01-23T08:14:19.534Z,77.50
2018-01-23T08:15:19.550Z,69.50
2018-01-23T08:16:19.570Z,78.80
2018-01-23T08:17:19.578Z,71.90
2018-01-23T08:18:19.594Z,71.20
2018-01-23T08:19:19.608Z,65.10
2018-01-23T08:20:19.624Z,80.90
2018-01-23T08:21:19.637Z,69.40
2018-01-23T08:22:19.659Z,70.30
2018-01-23T08:23:19.667Z,77.00
2018-01-23T08:24:19.685Z,69.50
2018-01-23T08:25:19.699Z,70.80
2018-01-23T08:26:19.715Z,82.60
2018-01-23T08:27:19.738Z,81.20
2018-01-23T08:28:19.743Z,73.00
2018-01-23T08:29:19.756Z,459.80
2018-01-23T08:30:19.773Z,214.70
2018-01-23T08:31:19.788Z,279.40
2018-01-23T08:32:19.807Z,185.20
2018-01-23T08:33:19.819Z,80.80
2018-01-23T08:34:19.831Z,84.10
2018-01-23T08:35:19.849Z,82.50
2018-01-23T08:36:19.862Z,77.50
2018-01-23T08:37:19.875Z,78.30
2018-01-23T08:38:19.894Z,82.30
2018-01-23T08:39:19.908Z,68.20
2018-01-23T08:40:19.922Z,70.30
2018-01-23T08:41:19.938Z,78.30
2018-01-23T08:42:19.953Z,72.60
2018-01-23T08:43:19.970Z,69.80
2018-01-23T08:44:19.981Z,72.90
2018-01-23T08:45:19.999Z,73.90
2018-01-23T08:46:20.015Z,67.30
2018-01-23T08:47:20.026Z,70.90
2018-01-23T08:48:20.043Z,74.20
2018-01-23T08:49:20.059Z,77.90
2018-01-23T08:50:20.089Z,72.70
2018-01-23T08:51:20.092Z,71.20
2018-01-23T08:52:20.108Z,73.90
2018-01-23T08:53:20.120Z,71.60
2018-01-23T08:54:20.135Z,65.00
2018-01-23T08:55:20.150Z,71.70
2018-01-23T08:56:20.165Z,73.50
2018-01-23T08:57:20.179Z,70.30
2018-01-23T08:58:20.194Z,70.40
2018-01-23T08:59:20.212Z,75.30
2018-01-23T09:00:20.225Z,76.60
2018-01-23T09:01:20.240Z,73.60
2018-01-23T09:02:20.257Z,75.70
2018-01-23T09:03:20.275Z,74.10
2018-01-23T09:04:20.293Z,72.40
2018-01-23T09:05:20.299Z,73.90
2018-01-23T09:06:20.315Z,71.90
2018-01-23T09:07:20.332Z,75.30
2018-01-23T09:08:20.345Z,91.50
2018-01-23T09:09:20.360Z,88.50
2018-01-23T09:10:20.374Z,86.10
2018-01-23T09:11:20.392Z,78.50
2018-01-23T09:12:20.406Z,78.10
2018-01-23T09:13:20.422Z,94.00
2018-01-23T09:14:20.437Z,116.20
2018-01-23T09:15:20.453Z,91.70
2018-01-23T09:16:20.483Z,86.40
2018-01-23T09:17:20.482Z,86.80
2018-01-23T09:18:20.499Z,91.30
2018-01-23T09:19:20.513Z,89.50
2018-01-23T09:20:20.531Z,91.30
2018-01-23T09:21:20.543Z,89.70
2018-01-23T09:22:20.558Z,87.40
2018-01-23T09:23:20.581Z,91.10
2018-01-23T09:24:20.591Z,79.80
2018-01-23T09:25:20.604Z,78.50
2018-01-23T09:26:20.619Z,81.80
2018-01-23T09:27:20.638Z,68.90
2018-01-23T09:28:20.652Z,79.30
2018-01-23T09:29:20.670Z,76.70
2018-01-23T09:30:20.693Z,78.30
2018-01-23T09:31:20.700Z,82.00
2018-01-23T09:32:20.713Z,75.50
2018-01-23T09:33:20.735Z,75.80
2018-01-23T09:34:20.757Z,71.50
2018-01-23T09:35:20.764Z,78.80
2018-01-23T09:36:20.776Z,80.80
2018-01-23T09:37:20.792Z,73.50
2018-01-23T09:38:20.808Z,73.30
2018-01-23T09:39:20.829Z,73.90
2018-01-23T09:40:20.842Z,66.20
2018-01-23T09:41:20.862Z,66.80
2018-01-23T09:42:20.875Z,66.50
2018-01-23T09:43:20.888Z,65.80
2018-01-23T09:44:20.902Z,52.40
2018-01-23T09:45:20.916Z,59.20
2018-01-23T09:46:20.939Z,55.40
2018-01-23T09:47:20.952Z,56.20
2018-01-23T09:48:20.966Z,52.80
2018-01-23T09:49:20.980Z,51.50
2018-01-23T09:50:21.002Z,57.20
2018-01-23T09:51:21.012Z,48.20
2018-01-23T09:52:21.031Z,53.70
2018-01-23T09:53:21.045Z,53.70
2018-01-23T09:54:21.062Z,53.60
2018-01-23T09:55:21.079Z,50.00
2018-01-23T09:56:21.093Z,53.50
2018-01-23T09:57:21.110Z,48.30
2018-01-23T09:58:21.151Z,49.40
2018-01-23T09:59:21.151Z,56.20
2018-01-23T10:00:21.160Z,56.60
2018-01-23T10:01:21.173Z,52.40
2018-01-23T10:02:21.187Z,49.70
2018-01-23T10:03:21.207Z,54.00
2018-01-23T10:04:21.218Z,51.60
2018-01-23T10:05:21.234Z,50.50
2018-01-23T10:06:21.257Z,52.10
2018-01-23T10:07:21.271Z,50.30
2018-01-23T10:08:21.284Z,47.30
2018-01-23T10:09:21.302Z,47.60
2018-01-23T10:10:21.313Z,42.30
2018-01-23T10:11:21.332Z,48.00
2018-01-23T10:12:21.349Z,50.40
2018-01-23T10:13:21.364Z,46.40
2018-01-23T10:14:21.380Z,49.60
2018-01-23T10:15:21.402Z,48.10
2018-01-23T10:16:21.413Z,52.40
2018-01-23T10:17:21.432Z,42.20
2018-01-23T10:18:21.495Z,48.40
2018-01-23T10:19:21.462Z,42.50
2018-01-23T10:20:21.479Z,40.10
2018-01-23T10:21:21.492Z,44.80
2018-01-23T10:22:21.509Z,47.30
2018-01-23T10:23:21.526Z,39.70
2018-01-23T10:24:21.540Z,37.60
2018-01-23T10:25:21.555Z,36.60
2018-01-23T10:26:21.572Z,38.70
2018-01-23T10:27:21.590Z,37.30
2018-01-23T10:28:21.607Z,35.50
2018-01-23T10:29:21.621Z,35.00
2018-01-23T10:30:21.637Z,31.50
2018-01-23T10:31:21.654Z,37.30
2018-01-23T10:32:21.670Z,35.70
2018-01-23T10:33:21.685Z,31.50
2018-01-23T10:34:21.700Z,36.20
2018-01-23T10:35:21.724Z,35.50
2018-01-23T10:36:21.732Z,33.70
2018-01-23T10:37:21.753Z,29.90
2018-01-23T10:38:21.767Z,34.60
2018-01-23T10:39:21.784Z,31.30
2018-01-23T10:40:21.799Z,26.70
2018-01-23T10:41:21.815Z,29.20
2018-01-23T10:42:21.836Z,27.10
2018-01-23T10:43:21.847Z,29.50
2018-01-23T10:44:21.864Z,30.70
2018-01-23T10:45:21.881Z,26.80
2018-01-23T10:46:21.897Z,29.70
2018-01-23T10:47:21.916Z,28.30
2018-01-23T10:48:21.928Z,34.50
2018-01-23T10:49:21.942Z,28.10
2018-01-23T10:50:21.983Z,29.50
2018-01-23T10:51:21.984Z,27.00
2018-01-23T10:52:21.994Z,26.80
2018-01-23T10:53:22.011Z,26.70
2018-01-23T10:54:22.102Z,30.00
2018-01-23T10:55:22.042Z,28.60
2018-01-23T10:56:22.060Z,26.50
2018-01-23T10:57:22.074Z,30.20
2018-01-23T10:58:22.093Z,27.00
2018-01-23T10:59:22.105Z,24.60
2018-01-23T11:00:22.122Z,25.60
2018-01-23T11:01:22.136Z,26.30
2018-01-23T11:02:22.156Z,31.00
2018-01-23T11:03:22.180Z,23.00
2018-01-23T11:04:22.187Z,23.40
2018-01-23T11:05:22.208Z,26.10
2018-01-23T11:06:22.221Z,25.00
2018-01-23T11:07:22.237Z,25.00
2018-01-23T11:08:22.255Z,24.10
2018-01-23T11:09:22.267Z,21.00
2018-01-23T11:10:22.323Z,23.90
2018-01-23T11:11:22.310Z,21.40
2018-01-23T11:12:22.327Z,22.30
2018-01-23T11:13:22.338Z,21.40
2018-01-23T11:14:22.433Z,25.50
2018-01-23T11:15:22.374Z,19.50
2018-01-23T11:16:22.389Z,16.60
2018-01-23T11:17:22.401Z,21.40
2018-01-23T11:18:22.420Z,21.30
2018-01-23T11:19:22.435Z,23.40
2018-01-23T11:20:22.451Z,16.00
2018-01-23T11:21:22.543Z,17.80
2018-01-23T11:22:22.484Z,20.60
2018-01-23T11:23:22.501Z,18.90
2018-01-23T11:24:22.516Z,20.30
2018-01-23T11:25:22.719Z,18.90
2018-01-23T11:26:22.548Z,20.00
2018-01-23T11:27:22.567Z,20.50
2018-01-23T11:28:22.585Z,20.00
2018-01-23T11:29:22.601Z,18.70
2018-01-23T11:30:22.617Z,17.40
2018-01-23T11:31:22.633Z,18.80
2018-01-23T11:32:22.653Z,21.20
2018-01-23T11:33:22.662Z,17.40
2018-01-23T11:34:22.678Z,19.20
2018-01-23T11:35:22.696Z,17.10
2018-01-23T11:36:22.712Z,19.60
2018-01-23T11:37:22.729Z,16.90
2018-01-23T11:38:22.747Z,20.30
2018-01-23T11:39:22.762Z,21.90
2018-01-23T11:40:22.775Z,20.30
2018-01-23T11:41:22.793Z,18.50
2018-01-23T11:42:22.809Z,22.50
2018-01-23T11:43:22.827Z,20.60
2018-01-23T11:44:22.839Z,19.00
2018-01-23T11:45:22.856Z,17.50
2018-01-23T11:46:22.877Z,16.50
2018-01-23T11:47:22.893Z,18.70
2018-01-23T11:48:22.907Z,22.20
2018-01-23T11:49:22.924Z,20.30
2018-01-23T11:50:22.939Z,17.70
2018-01-23T11:51:22.957Z,19.10
2018-01-23T11:52:22.972Z,19.40
2018-01-23T11:53:22.989Z,23.50
2018-01-23T11:54:23.010Z,18.70
2018-01-23T11:55:23.038Z,21.10
2018-01-23T11:56:23.036Z,19.00
2018-01-23T11:57:23.056Z,21.60
2018-01-23T11:58:23.078Z,24.70
2018-01-23T11:59:23.099Z,32.90
2018-01-23T12:00:23.105Z,23.60
2018-01-23T12:01:23.116Z,21.50
2018-01-23T12:02:23.135Z,17.00
2018-01-23T12:03:23.151Z,20.60
2018-01-23T12:04:23.165Z,23.30
2018-01-23T12:05:23.183Z,23.30
2018-01-23T12:06:23.207Z,19.90
2018-01-23T12:07:23.217Z,20.20
2018-01-23T12:08:23.231Z,21.00
2018-01-23T12:09:23.250Z,23.20
2018-01-23T12:10:23.264Z,25.90
2018-01-23T12:11:23.283Z,22.00
2018-01-23T12:12:23.296Z,21.40
2018-01-23T12:13:23.314Z,21.10
2018-01-23T12:14:23.331Z,20.40
2018-01-23T12:15:23.350Z,23.00
2018-01-23T12:16:23.364Z,26.10
2018-01-23T12:17:23.379Z,23.40
2018-01-23T12:18:23.400Z,22.50
2018-01-23T12:19:23.413Z,23.40
2018-01-23T12:20:23.431Z,21.60
2018-01-23T12:21:23.446Z,21.10
2018-01-23T12:22:23.461Z,19.60
2018-01-23T12:23:23.478Z,20.80
2018-01-23T12:24:23.494Z,25.70
2018-01-23T12:25:23.514Z,21.40
2018-01-23T12:26:23.528Z,21.20
2018-01-23T12:27:23.543Z,19.30
2018-01-23T12:28:23.561Z,21.70
2018-01-23T12:29:23.577Z,18.10
2018-01-23T12:30:23.597Z,18.10
2018-01-23T12:31:23.612Z,23.30
2018-01-23T12:32:23.635Z,22.00
2018-01-23T12:33:23.644Z,18.90
2018-01-23T12:34:23.666Z,18.30
2018-01-23T12:35:23.682Z,21.80
2018-01-23T12:36:23.696Z,21.80
2018-01-23T12:37:23.707Z,18.50
2018-01-23T12:38:23.727Z,20.20
2018-01-23T12:39:23.798Z,19.90
2018-01-23T12:40:23.758Z,22.10
2018-01-23T12:41:23.777Z,18.40
2018-01-23T12:42:23.792Z,20.50
2018-01-23T12:43:23.812Z,21.30
2018-01-23T12:44:23.825Z,19.10
2018-01-23T12:45:23.844Z,18.80
2018-01-23T12:46:23.858Z,20.40
2018-01-23T12:47:23.882Z,16.90
2018-01-23T12:48:23.890Z,19.00
2018-01-23T12:49:23.913Z,17.00
2018-01-23T12:50:23.922Z,19.30
2018-01-23T12:51:23.947Z,19.30
2018-01-23T12:52:23.959Z,16.90